createdAt,value
2018-06-17T00:02:03.158Z,24.40
2018-06-17T00:04:35.494Z,22.40
2018-06-17T00:07:08.063Z,24.20
2018-06-17T00:09:40.742Z,22.00
2018-06-17T00:12:13.462Z,22.40
2018-06-17T00:14:46.295Z,26.40
2018-06-17T00:17:18.364Z,23.20
2018-06-17T00:20:53.776Z,20.80
2018-06-17T00:23:26.899Z,22.60
2018-06-17T00:25:59.985Z,23.20
2018-06-17T00:28:32.272Z,24.20
2018-06-17T00:31:05.160Z,17.60
2018-06-17T00:33:37.672Z,20.00
2018-06-17T00:36:11.679Z,23.80
2018-06-17T00:38:44.158Z,21.80
2018-06-17T00:41:17.285Z,22.60
2018-06-17T00:43:50.348Z,23.80
2018-06-17T00:46:22.965Z,25.80
2018-06-17T00:48:56.346Z,27.60
2018-06-17T00:51:29.523Z,31.20
2018-06-17T00:54:02.662Z,28.40
2018-06-17T00:56:35.968Z,29.40
2018-06-17T00:59:08.410Z,26.40
2018-06-17T01:01:40.803Z,30.60
2018-06-17T01:04:14.123Z,25.80
2018-06-17T01:06:47.616Z,32.20
2018-06-17T01:09:20.635Z,25.80
2018-06-17T01:11:54.053Z,30.20
2018-06-17T01:14:26.726Z,31.60
2018-06-17T01:17:00.261Z,32.40
2018-06-17T01:19:33.228Z,30.80
2018-06-17T01:22:06.805Z,31.80
2018-06-17T01:24:38.623Z,32.00
2018-06-17T01:27:11.822Z,28.20
2018-06-17T01:29:43.950Z,31.80
2018-06-17T01:32:16.678Z,32.40
2018-06-17T01:34:49.875Z,31.00
2018-06-17T01:37:22.534Z,23.80
2018-06-17T01:39:54.776Z,33.00
2018-06-17T01:42:27.830Z,32.20
2018-06-17T01:45:00.479Z,34.60
2018-06-17T01:47:33.296Z,32.20
2018-06-17T01:50:06.294Z,31.60
2018-06-17T01:52:39.163Z,32.60
2018-06-17T01:55:12.987Z,32.80
2018-06-17T01:57:46.475Z,32.00
2018-06-17T02:00:18.755Z,32.40
2018-06-17T02:02:50.986Z,31.00
2018-06-17T02:05:28.437Z,34.40
2018-06-17T02:08:05.555Z,33.20
2018-06-17T02:10:42.233Z,30.00
2018-06-17T02:13:15.259Z,32.60
2018-06-17T02:15:48.131Z,33.00
2018-06-17T02:18:20.576Z,29.60
2018-06-17T02:20:53.786Z,36.40
2018-06-17T02:23:27.245Z,33.60
2018-06-17T02:26:00.054Z,36.00
2018-06-17T02:28:33.215Z,37.00
2018-06-17T02:31:06.395Z,35.00
2018-06-17T02:33:38.899Z,31.00
2018-06-17T02:36:12.026Z,31.80
2018-06-17T02:38:45.111Z,33.20
2018-06-17T02:41:17.474Z,32.00
2018-06-17T02:43:50.020Z,31.80
2018-06-17T02:46:27.145Z,30.00
2018-06-17T02:49:04.883Z,34.60
2018-06-17T02:51:41.633Z,32.60
2018-06-17T02:54:19.560Z,33.20
2018-06-17T02:56:51.977Z,30.80
2018-06-17T02:59:25.416Z,33.20
2018-06-17T03:01:58.536Z,33.00
2018-06-17T03:04:32.438Z,29.60
2018-06-17T03:07:04.348Z,33.00
2018-06-17T03:09:37.756Z,32.60
2018-06-17T03:12:10.991Z,33.40
2018-06-17T03:14:43.973Z,29.60
2018-06-17T03:17:16.392Z,31.60
2018-06-17T03:19:49.113Z,25.60
2018-06-17T03:22:22.266Z,25.40
2018-06-17T03:24:59.532Z,28.80
2018-06-17T03:27:35.953Z,31.80
2018-06-17T03:30:12.629Z,26.80
2018-06-17T03:32:50.261Z,23.20
2018-06-17T03:36:28.832Z,24.80
2018-06-17T03:39:01.638Z,27.80
2018-06-17T03:41:34.931Z,32.00
2018-06-17T03:44:07.500Z,29.20
2018-06-17T03:46:40.642Z,31.20
2018-06-17T03:49:14.915Z,28.40
2018-06-17T03:51:48.469Z,30.00
2018-06-17T03:54:21.799Z,28.80
2018-06-17T03:56:55.049Z,27.80
2018-06-17T03:59:27.595Z,26.40
2018-06-17T04:02:00.689Z,25.60
2018-06-17T04:04:37.565Z,23.80
2018-06-17T04:07:09.984Z,25.60
2018-06-17T04:09:42.370Z,28.40
2018-06-17T04:12:15.240Z,26.00
2018-06-17T04:14:47.914Z,24.60
2018-06-17T04:17:21.078Z,22.40
2018-06-17T04:19:54.386Z,23.20
2018-06-17T04:22:27.343Z,21.60
2018-06-17T04:24:59.602Z,26.40
2018-06-17T04:27:32.501Z,22.00
2018-06-17T04:30:05.507Z,27.40
2018-06-17T04:32:38.855Z,24.80
2018-06-17T04:35:10.807Z,23.80
2018-06-17T04:37:43.503Z,26.60
2018-06-17T04:40:16.600Z,25.40
2018-06-17T04:42:49.091Z,23.20
2018-06-17T04:45:21.978Z,28.20
2018-06-17T04:47:54.197Z,23.60
2018-06-17T04:50:27.075Z,26.80
2018-06-17T04:52:59.726Z,22.80
2018-06-17T04:55:32.292Z,22.00
2018-06-17T04:58:05.180Z,24.60
2018-06-17T05:00:38.249Z,20.60
2018-06-17T05:03:11.532Z,27.00
2018-06-17T05:05:44.571Z,25.80
2018-06-17T05:08:17.549Z,26.40
2018-06-17T05:10:50.066Z,26.20
2018-06-17T05:13:24.964Z,23.40
2018-06-17T05:15:57.913Z,25.80
2018-06-17T05:18:31.053Z,25.20
2018-06-17T05:21:03.900Z,23.40
2018-06-17T05:23:37.134Z,22.00
2018-06-17T05:26:09.783Z,21.20
2018-06-17T05:28:42.749Z,20.60
2018-06-17T05:31:15.851Z,22.80
2018-06-17T05:33:49.236Z,22.60
2018-06-17T05:36:22.317Z,25.40
2018-06-17T05:38:55.285Z,23.20
2018-06-17T05:41:29.684Z,24.00
2018-06-17T05:44:02.638Z,23.00
2018-06-17T05:46:35.400Z,22.40
2018-06-17T05:49:08.447Z,22.00
2018-06-17T05:51:41.772Z,21.00
2018-06-17T05:54:14.879Z,15.60
2018-06-17T05:56:47.704Z,27.40
2018-06-17T05:59:20.617Z,24.40
2018-06-17T06:01:53.869Z,23.20
2018-06-17T06:04:27.361Z,27.20
2018-06-17T06:07:00.475Z,20.00
2018-06-17T06:09:33.152Z,24.20
2018-06-17T06:12:06.015Z,21.60
2018-06-17T06:14:39.359Z,17.80
2018-06-17T06:17:12.977Z,20.80
2018-06-17T06:19:46.408Z,19.40
2018-06-17T06:22:18.912Z,22.40
2018-06-17T06:24:51.895Z,19.40
2018-06-17T06:27:23.987Z,20.60
2018-06-17T06:29:58.166Z,21.20
2018-06-17T06:32:32.828Z,21.00
2018-06-17T06:35:05.595Z,24.60
2018-06-17T06:37:39.624Z,22.40
2018-06-17T06:40:15.007Z,21.20
2018-06-17T06:42:48.314Z,24.40
2018-06-17T06:45:22.195Z,21.40
2018-06-17T06:47:55.311Z,23.20
2018-06-17T06:50:27.923Z,25.20
2018-06-17T06:53:00.793Z,24.20
2018-06-17T06:55:33.872Z,22.00
2018-06-17T06:58:07.253Z,21.20
2018-06-17T07:00:41.380Z,18.60
2018-06-17T07:03:23.508Z,18.60
2018-06-17T07:06:05.041Z,17.80
2018-06-17T07:08:48.025Z,18.80
2018-06-17T07:11:21.120Z,18.40
2018-06-17T07:13:54.357Z,18.40
2018-06-17T07:16:36.611Z,17.60
2018-06-17T07:19:09.503Z,19.60
2018-06-17T07:21:42.194Z,16.60
2018-06-17T07:24:14.860Z,17.80
2018-06-17T07:27:00.644Z,16.20
2018-06-17T07:29:46.647Z,17.20
2018-06-17T07:32:20.126Z,17.20
2018-06-17T07:34:53.417Z,15.20
2018-06-17T07:37:26.532Z,16.60
2018-06-17T07:41:02.385Z,18.60
2018-06-17T07:43:36.684Z,17.00
2018-06-17T07:46:10.900Z,20.40
2018-06-17T07:49:52.347Z,17.20
2018-06-17T07:52:35.255Z,19.20
2018-06-17T07:55:08.446Z,16.40
2018-06-17T07:57:41.232Z,16.20
2018-06-17T08:00:16.440Z,16.40
2018-06-17T08:02:49.489Z,17.80
2018-06-17T08:05:23.356Z,18.00
2018-06-17T08:07:57.440Z,17.40
2018-06-17T08:10:30.413Z,18.60
2018-06-17T08:13:04.741Z,17.00
2018-06-17T08:15:38.368Z,18.00
2018-06-17T08:18:11.645Z,17.00
2018-06-17T08:20:47.115Z,18.40
2018-06-17T08:23:20.389Z,16.00
2018-06-17T08:25:56.192Z,20.40
2018-06-17T08:28:30.054Z,20.40
2018-06-17T08:31:03.233Z,17.40
2018-06-17T08:33:35.948Z,19.60
2018-06-17T08:36:08.974Z,18.20
2018-06-17T08:38:41.965Z,16.00
2018-06-17T08:41:16.450Z,16.60
2018-06-17T08:43:49.097Z,17.20
2018-06-17T08:46:22.790Z,18.00
2018-06-17T08:48:55.586Z,18.80
2018-06-17T08:51:28.847Z,19.00
2018-06-17T08:54:04.692Z,15.40
2018-06-17T08:56:37.838Z,12.40
2018-06-17T08:59:11.250Z,18.20
2018-06-17T09:01:44.909Z,19.60
2018-06-17T09:04:18.892Z,17.40
2018-06-17T09:06:53.474Z,15.60
2018-06-17T09:09:26.896Z,18.00
2018-06-17T09:12:04.963Z,14.60
2018-06-17T09:14:38.370Z,18.00
2018-06-17T09:17:11.554Z,19.00
2018-06-17T09:19:46.962Z,16.40
2018-06-17T09:22:20.204Z,15.40
2018-06-17T09:24:55.458Z,14.00
2018-06-17T09:27:30.199Z,22.00
2018-06-17T09:30:03.473Z,18.40
2018-06-17T09:32:36.925Z,18.20
2018-06-17T09:35:11.214Z,19.80
2018-06-17T09:37:44.925Z,14.20
2018-06-17T09:40:17.669Z,18.40
2018-06-17T09:42:50.311Z,18.40
2018-06-17T09:45:24.340Z,15.20
2018-06-17T09:47:58.039Z,19.40
2018-06-17T09:50:31.413Z,18.00
2018-06-17T09:53:04.601Z,15.80
2018-06-17T09:55:37.760Z,13.00
2018-06-17T09:58:10.970Z,13.40
2018-06-17T10:00:45.221Z,16.60
2018-06-17T10:03:18.449Z,17.40
2018-06-17T10:05:52.589Z,15.60
2018-06-17T10:08:25.173Z,14.60
2018-06-17T10:11:01.417Z,13.40
2018-06-17T10:13:37.024Z,13.60
2018-06-17T10:16:11.531Z,18.80
2018-06-17T10:18:43.892Z,15.40
2018-06-17T10:21:18.629Z,17.20
2018-06-17T10:23:52.324Z,15.20
2018-06-17T10:26:24.969Z,15.20
2018-06-17T10:28:58.873Z,16.20
2018-06-17T10:31:32.793Z,18.00
2018-06-17T10:34:06.120Z,17.20
2018-06-17T10:36:40.204Z,17.80
2018-06-17T10:39:13.413Z,16.60
2018-06-17T10:41:46.549Z,17.00
2018-06-17T10:44:19.195Z,14.60
2018-06-17T10:46:52.082Z,15.80
2018-06-17T10:49:25.508Z,16.00
2018-06-17T10:51:58.624Z,18.40
2018-06-17T10:54:32.005Z,14.60
2018-06-17T10:57:05.483Z,15.80
2018-06-17T10:59:39.376Z,15.80
2018-06-17T11:02:13.628Z,13.40
2018-06-17T11:04:48.360Z,14.40
2018-06-17T11:07:20.573Z,28.40
2018-06-17T11:09:53.838Z,19.60
2018-06-17T11:12:26.341Z,26.00
2018-06-17T11:14:58.994Z,26.40
2018-06-17T11:17:32.554Z,24.40
2018-06-17T11:20:04.934Z,19.80
2018-06-17T11:22:38.055Z,25.00
2018-06-17T11:25:11.489Z,22.80
2018-06-17T11:27:44.278Z,26.40
2018-06-17T11:30:17.079Z,23.60
2018-06-17T11:32:52.847Z,27.20
2018-06-17T11:35:26.280Z,24.60
2018-06-17T11:37:58.982Z,24.20
2018-06-17T11:40:34.182Z,24.60
2018-06-17T11:43:10.054Z,24.40
2018-06-17T11:45:43.916Z,23.00
2018-06-17T11:48:16.846Z,29.00
2018-06-17T11:50:52.246Z,25.80
2018-06-17T11:53:25.899Z,26.40
2018-06-17T11:55:59.933Z,26.00
2018-06-17T11:58:34.583Z,24.20
2018-06-17T12:01:07.505Z,24.80
2018-06-17T12:03:41.086Z,27.20
2018-06-17T12:06:14.239Z,24.80
2018-06-17T12:08:47.445Z,24.00
2018-06-17T12:11:22.810Z,25.80
2018-06-17T12:13:56.051Z,27.80
2018-06-17T12:16:29.154Z,24.40
2018-06-17T12:19:02.190Z,24.00
2018-06-17T12:21:35.394Z,25.00
2018-06-17T12:24:08.486Z,29.00
2018-06-17T12:26:41.623Z,23.80
2018-06-17T12:29:15.496Z,25.80
2018-06-17T12:31:48.693Z,24.80
2018-06-17T12:34:21.591Z,25.60
2018-06-17T12:36:54.837Z,26.60
2018-06-17T12:39:27.273Z,24.00
2018-06-17T12:42:00.875Z,29.00
2018-06-17T12:44:33.836Z,27.20
2018-06-17T12:47:06.358Z,26.40
2018-06-17T12:49:39.278Z,27.00
2018-06-17T12:52:12.347Z,28.20
2018-06-17T12:54:45.222Z,27.80
2018-06-17T12:57:18.178Z,27.20
2018-06-17T12:59:50.769Z,35.40
2018-06-17T13:02:24.088Z,37.60
2018-06-17T13:04:56.832Z,37.00
2018-06-17T13:07:30.426Z,38.00
2018-06-17T13:10:03.544Z,37.00
2018-06-17T13:12:37.383Z,35.20
2018-06-17T13:15:10.443Z,35.40
2018-06-17T13:17:43.465Z,34.00
2018-06-17T13:20:16.265Z,32.40
2018-06-17T13:22:49.263Z,31.40
2018-06-17T13:25:22.467Z,31.00
2018-06-17T13:27:55.496Z,33.40
2018-06-17T13:30:28.750Z,33.00
2018-06-17T13:33:01.637Z,31.20
2018-06-17T13:35:35.775Z,30.20
2018-06-17T13:38:09.563Z,30.80
2018-06-17T13:40:43.920Z,29.20
2018-06-17T13:43:16.986Z,27.00
2018-06-17T13:45:50.326Z,30.20
2018-06-17T13:48:23.621Z,30.00
2018-06-17T13:50:56.972Z,30.80
2018-06-17T13:53:30.275Z,28.60
2018-06-17T13:56:03.558Z,29.60
2018-06-17T13:58:36.845Z,29.20
2018-06-17T14:01:09.382Z,29.00
2018-06-17T14:03:42.568Z,29.40
2018-06-17T14:06:16.007Z,30.00
2018-06-17T14:08:49.282Z,29.60
2018-06-17T14:11:21.778Z,26.80
2018-06-17T14:13:54.759Z,31.00
2018-06-17T14:16:27.780Z,29.00
2018-06-17T14:19:01.362Z,29.00
2018-06-17T14:21:34.176Z,32.20
2018-06-17T14:24:07.622Z,29.40
2018-06-17T14:26:40.674Z,30.80
2018-06-17T14:29:14.260Z,30.40
2018-06-17T14:31:47.376Z,29.20
2018-06-17T14:34:20.820Z,32.60
2018-06-17T14:36:54.091Z,30.80
2018-06-17T14:39:27.219Z,31.20
2018-06-17T14:42:04.687Z,31.60
2018-06-17T14:46:45.691Z,29.40
2018-06-17T14:49:23.817Z,30.00
2018-06-17T14:52:01.283Z,30.60
2018-06-17T14:54:34.485Z,29.40
2018-06-17T14:57:08.500Z,30.80
2018-06-17T14:59:41.248Z,27.00
2018-06-17T15:02:14.072Z,25.00
2018-06-17T15:04:47.109Z,26.60
2018-06-17T15:07:20.492Z,28.40
2018-06-17T15:09:53.963Z,32.20
2018-06-17T15:12:27.216Z,29.00
2018-06-17T15:15:00.703Z,29.00
2018-06-17T15:17:33.973Z,28.60
2018-06-17T15:20:07.444Z,32.00
2018-06-17T15:22:41.024Z,28.40
2018-06-17T15:25:14.294Z,32.80
2018-06-17T15:27:47.466Z,29.00
2018-06-17T15:30:21.961Z,29.00
2018-06-17T15:33:00.088Z,29.80
2018-06-17T15:35:37.830Z,30.00
2018-06-17T15:38:15.993Z,29.20
2018-06-17T15:40:53.385Z,29.40
2018-06-17T15:43:26.704Z,32.20
2018-06-17T15:45:59.977Z,29.60
2018-06-17T15:48:33.323Z,30.40
2018-06-17T15:51:06.769Z,30.20
2018-06-17T15:53:40.572Z,32.60
2018-06-17T15:56:14.484Z,29.40
2018-06-17T15:58:48.517Z,31.00
2018-06-17T16:01:22.133Z,31.00
2018-06-17T16:03:55.912Z,31.60
2018-06-17T16:06:29.654Z,31.40
2018-06-17T16:09:03.743Z,31.40
2018-06-17T16:11:42.065Z,29.40
2018-06-17T16:14:20.028Z,31.80
2018-06-17T16:16:58.135Z,31.00
2018-06-17T16:19:36.024Z,33.00
2018-06-17T16:22:09.583Z,29.80
2018-06-17T16:24:43.079Z,33.20
2018-06-17T16:27:16.261Z,30.80
2018-06-17T16:29:50.025Z,27.40
2018-06-17T16:32:24.944Z,29.40
2018-06-17T16:34:58.721Z,31.60
2018-06-17T16:37:32.162Z,30.20
2018-06-17T16:40:05.951Z,30.20
2018-06-17T16:42:39.412Z,32.00
2018-06-17T16:45:13.117Z,31.00
2018-06-17T16:47:46.084Z,29.20
2018-06-17T16:50:19.606Z,31.80
2018-06-17T16:52:57.183Z,28.80
2018-06-17T16:55:35.085Z,29.20
2018-06-17T16:58:13.020Z,31.60
2018-06-17T17:00:46.345Z,30.60
2018-06-17T17:03:19.502Z,30.60
2018-06-17T17:05:52.852Z,31.60
2018-06-17T17:08:27.102Z,30.00
2018-06-17T17:11:00.835Z,30.80
2018-06-17T17:13:34.944Z,31.00
2018-06-17T17:16:08.680Z,31.60
2018-06-17T17:18:41.897Z,30.20
2018-06-17T17:21:15.838Z,29.40
2018-06-17T17:23:48.690Z,29.00
2018-06-17T17:26:21.702Z,31.00
2018-06-17T17:28:56.306Z,29.80
2018-06-17T17:31:34.707Z,30.40
2018-06-17T17:34:12.208Z,29.80
2018-06-17T17:36:49.826Z,27.80
2018-06-17T17:39:27.530Z,26.60
2018-06-17T17:42:01.221Z,30.20
2018-06-17T17:44:40.006Z,30.60
2018-06-17T17:47:18.010Z,31.00
2018-06-17T17:49:51.681Z,29.00
2018-06-17T17:52:24.973Z,28.60
2018-06-17T17:54:58.763Z,29.60
2018-06-17T17:57:31.798Z,30.00
2018-06-17T18:00:04.520Z,31.20
2018-06-17T18:02:38.350Z,32.00
2018-06-17T18:05:12.122Z,29.00
2018-06-17T18:07:45.874Z,31.00
2018-06-17T18:10:19.235Z,26.80
2018-06-17T18:12:52.713Z,30.60
2018-06-17T18:15:25.599Z,29.80
2018-06-17T18:17:59.500Z,29.00
2018-06-17T18:20:32.219Z,30.80
2018-06-17T18:23:05.771Z,29.80
2018-06-17T18:25:43.525Z,28.60
2018-06-17T18:28:21.069Z,30.60
2018-06-17T18:31:02.629Z,30.60
2018-06-17T18:33:40.075Z,29.20
2018-06-17T18:36:15.733Z,29.20
2018-06-17T18:38:49.636Z,27.20
2018-06-17T18:41:23.282Z,27.00
2018-06-17T18:43:56.911Z,29.00
2018-06-17T18:46:30.592Z,26.00
2018-06-17T18:49:04.366Z,28.40
2018-06-17T18:51:37.153Z,25.00
2018-06-17T18:54:12.006Z,27.60
2018-06-17T18:56:45.325Z,24.60
2018-06-17T19:00:20.721Z,25.00
2018-06-17T19:02:54.008Z,30.00
2018-06-17T19:05:27.860Z,26.20
2018-06-17T19:08:00.668Z,24.60
2018-06-17T19:10:39.261Z,23.80
2018-06-17T19:13:16.797Z,25.00
2018-06-17T19:15:54.614Z,27.40
2018-06-17T19:18:28.709Z,30.00
2018-06-17T19:21:02.266Z,24.20
2018-06-17T19:23:35.605Z,29.80
2018-06-17T19:26:09.073Z,29.80
2018-06-17T19:28:42.720Z,29.20
2018-06-17T19:31:16.228Z,27.40
2018-06-17T19:33:49.461Z,28.60
2018-06-17T19:36:22.589Z,28.20
2018-06-17T19:38:56.225Z,29.00
2018-06-17T19:41:30.201Z,21.80
2018-06-17T19:44:03.094Z,25.80
2018-06-17T19:46:36.131Z,28.60
2018-06-17T19:49:09.614Z,27.80
2018-06-17T19:51:46.897Z,26.40
2018-06-17T19:54:24.820Z,31.20
2018-06-17T19:57:02.634Z,29.20
2018-06-17T19:59:40.180Z,24.80
2018-06-17T20:02:13.265Z,29.40
2018-06-17T20:04:46.369Z,28.20
2018-06-17T20:07:19.901Z,30.20
2018-06-17T20:09:52.629Z,23.60
2018-06-17T20:12:26.114Z,28.00
2018-06-17T20:14:59.091Z,27.40
2018-06-17T20:17:32.155Z,28.80
2018-06-17T20:20:05.626Z,28.60
2018-06-17T20:22:38.733Z,29.00
2018-06-17T20:25:11.313Z,28.60
2018-06-17T20:27:43.948Z,30.60
2018-06-17T20:30:16.297Z,28.20
2018-06-17T20:32:53.624Z,27.60
2018-06-17T20:35:31.335Z,27.40
2018-06-17T20:38:08.157Z,27.60
2018-06-17T20:40:45.478Z,30.40
2018-06-17T20:43:23.612Z,27.60
2018-06-17T20:45:56.891Z,29.20
2018-06-17T20:48:29.318Z,29.20
2018-06-17T20:51:02.253Z,24.20
2018-06-17T20:53:35.357Z,26.00
2018-06-17T20:56:07.707Z,29.80
2018-06-17T20:58:41.025Z,27.20
2018-06-17T21:01:14.260Z,29.40
2018-06-17T21:03:46.456Z,30.00
2018-06-17T21:06:19.301Z,28.80
2018-06-17T21:08:52.543Z,28.60
2018-06-17T21:11:25.810Z,28.40
2018-06-17T21:13:59.587Z,26.60
2018-06-17T21:16:32.494Z,31.40
2018-06-17T21:19:10.141Z,30.60
2018-06-17T21:21:46.879Z,30.40
2018-06-17T21:24:24.584Z,31.00
2018-06-17T21:27:01.826Z,30.40
2018-06-17T21:29:34.966Z,30.40
2018-06-17T21:32:07.810Z,30.00
2018-06-17T21:34:41.190Z,30.80
2018-06-17T21:37:14.152Z,31.20
2018-06-17T21:39:47.269Z,28.80
2018-06-17T21:42:20.085Z,27.00
2018-06-17T21:44:53.424Z,29.80
2018-06-17T21:47:26.898Z,31.80
2018-06-17T21:50:00.259Z,32.20
2018-06-17T21:52:32.276Z,32.20
2018-06-17T21:55:05.550Z,27.00
2018-06-17T21:57:38.843Z,30.40
2018-06-17T22:00:12.682Z,30.40
2018-06-17T22:02:46.686Z,29.80
2018-06-17T22:05:19.509Z,24.00
2018-06-17T22:07:56.481Z,31.20
2018-06-17T22:10:34.513Z,31.40
2018-06-17T22:13:07.381Z,31.40
2018-06-17T22:15:45.144Z,31.60
2018-06-17T22:18:18.124Z,31.20
2018-06-17T22:20:51.017Z,32.00
2018-06-17T22:23:23.840Z,29.80
2018-06-17T22:25:57.019Z,32.00
2018-06-17T22:28:30.159Z,33.00
2018-06-17T22:31:03.523Z,30.80
2018-06-17T22:33:35.912Z,32.00
2018-06-17T22:36:08.555Z,30.80
2018-06-17T22:38:41.286Z,28.20
2018-06-17T22:41:15.233Z,31.60
2018-06-17T22:43:47.996Z,30.80
2018-06-17T22:46:21.015Z,32.20
2018-06-17T22:48:54.177Z,30.00
2018-06-17T22:51:27.402Z,32.00
2018-06-17T22:54:08.536Z,31.00
2018-06-17T22:56:46.074Z,29.60
2018-06-17T22:59:22.810Z,29.40
2018-06-17T23:02:00.920Z,29.60
2018-06-17T23:05:40.105Z,29.60
2018-06-17T23:08:17.878Z,32.60
2018-06-17T23:10:51.446Z,31.60
2018-06-17T23:13:24.240Z,30.20
2018-06-17T23:15:57.094Z,32.40
2018-06-17T23:18:30.812Z,30.20
2018-06-17T23:21:04.026Z,32.40
2018-06-17T23:23:36.506Z,33.40
2018-06-17T23:26:11.700Z,31.80
2018-06-17T23:28:45.636Z,33.00
2018-06-17T23:31:18.696Z,35.40
2018-06-17T23:33:51.191Z,33.20
2018-06-17T23:36:23.726Z,31.80
2018-06-17T23:38:57.061Z,33.60
2018-06-17T23:41:30.348Z,32.60
2018-06-17T23:44:03.793Z,31.80
2018-06-17T23:46:41.165Z,33.40
2018-06-17T23:49:18.691Z,35.00
2018-06-17T23:51:55.460Z,33.40
2018-06-17T23:54:33.065Z,32.00
2018-06-17T23:57:05.864Z,34.00
2018-06-17T23:59:39.035Z,32.80
